createdAt,value
2018-12-13T00:02:36.658Z,99161.20
2018-12-13T00:07:41.034Z,99154.15
2018-12-13T00:12:43.303Z,99154.98
2018-12-13T00:17:45.545Z,99147.06
2018-12-13T00:22:47.900Z,99154.77
2018-12-13T00:27:50.147Z,99152.17
2018-12-13T00:32:52.402Z,99145.56
2018-12-13T00:37:54.661Z,99132.67
2018-12-13T00:42:56.900Z,99133.27
2018-12-13T00:47:59.250Z,99138.61
2018-12-13T00:53:01.527Z,99137.91
2018-12-13T00:58:03.886Z,99145.48
2018-12-13T01:03:06.147Z,99145.34
2018-12-13T01:08:08.375Z,99132.59
2018-12-13T01:13:10.737Z,99142.28
2018-12-13T01:18:12.979Z,99136.01
2018-12-13T01:23:15.313Z,99138.61
2018-12-13T01:28:17.609Z,99132.57
2018-12-13T01:33:19.858Z,99127.60
2018-12-13T01:38:22.114Z,99124.77
2018-12-13T01:43:24.595Z,99124.06
2018-12-13T01:48:26.849Z,99123.83
2018-12-13T01:53:29.320Z,99126.53
2018-12-13T01:58:31.561Z,99127.55
2018-12-13T02:03:33.807Z,99118.69
2018-12-13T02:08:36.060Z,99122.72
2018-12-13T02:13:38.476Z,99114.47
2018-12-13T02:18:40.842Z,99104.53
2018-12-13T02:23:43.302Z,99104.76
2018-12-13T02:28:45.560Z,99102.55
2018-12-13T02:33:47.819Z,99103.02
2018-12-13T02:38:50.116Z,99097.92
2018-12-13T02:43:52.359Z,99101.12
2018-12-13T02:49:08.270Z,99098.41
2018-12-13T02:54:10.546Z,99090.23
2018-12-13T02:59:12.794Z,99090.01
2018-12-13T03:04:15.066Z,99083.03
2018-12-13T03:09:17.316Z,99085.63
2018-12-13T03:14:19.626Z,99087.17
2018-12-13T03:19:21.867Z,99076.30
2018-12-13T03:24:24.140Z,99085.41
2018-12-13T03:29:26.508Z,99077.23
2018-12-13T03:34:28.756Z,99068.52
2018-12-13T03:39:31.039Z,99062.81
2018-12-13T03:44:33.282Z,99054.11
2018-12-13T03:49:35.683Z,99053.73
2018-12-13T03:54:37.999Z,99048.30
2018-12-13T03:59:40.389Z,99046.30
2018-12-13T04:04:42.642Z,99047.37
2018-12-13T04:09:45.056Z,99053.77
2018-12-13T04:14:47.659Z,99049.49
2018-12-13T04:19:49.935Z,99044.09
2018-12-13T04:24:53.799Z,99048.91
2018-12-13T04:29:56.078Z,99046.45
2018-12-13T04:34:58.371Z,99044.20
2018-12-13T04:40:00.642Z,99046.09
2018-12-13T04:45:03.107Z,99045.27
2018-12-13T04:50:06.167Z,99044.09
2018-12-13T04:55:09.358Z,99051.66
2018-12-13T05:00:12.002Z,99050.02
2018-12-13T05:05:14.491Z,99041.75
2018-12-13T05:10:28.307Z,99038.32
2018-12-13T05:15:31.759Z,99037.15
2018-12-13T05:20:34.146Z,99031.58
2018-12-13T05:25:36.541Z,99031.25
2018-12-13T05:30:39.078Z,99031.95
2018-12-13T05:35:41.343Z,99038.55
2018-12-13T05:40:43.675Z,99033.02
2018-12-13T05:45:45.988Z,99036.91
2018-12-13T05:50:48.640Z,99032.28
2018-12-13T05:55:50.956Z,99036.89
2018-12-13T06:00:53.226Z,99034.05
2018-12-13T06:05:55.499Z,99033.48
2018-12-13T06:10:57.838Z,99035.38
2018-12-13T06:16:00.751Z,99032.44
2018-12-13T06:21:03.173Z,99034.09
2018-12-13T06:26:05.531Z,99035.61
2018-12-13T06:31:07.815Z,99038.58
2018-12-13T06:36:10.729Z,99044.00
2018-12-13T06:41:13.203Z,99039.89
2018-12-13T06:46:15.673Z,99045.78
2018-12-13T06:51:17.945Z,99041.42
2018-12-13T06:56:21.430Z,99044.02
2018-12-13T07:01:23.696Z,99041.29
2018-12-13T07:06:25.978Z,99040.36
2018-12-13T07:11:28.328Z,99036.80
2018-12-13T07:16:30.647Z,99039.17
2018-12-13T07:21:32.966Z,99035.50
2018-12-13T07:26:35.332Z,99033.40
2018-12-13T07:31:37.630Z,99027.70
2018-12-13T07:36:39.990Z,99028.53
2018-12-13T07:41:43.045Z,99033.02
2018-12-13T07:46:45.928Z,99028.89
2018-12-13T07:51:48.220Z,99020.52
2018-12-13T07:56:50.545Z,99018.03
2018-12-13T08:01:53.171Z,99025.45
2018-12-13T08:06:55.496Z,99027.23
2018-12-13T08:11:57.779Z,99020.95
2018-12-13T08:17:00.136Z,99021.65
2018-12-13T08:22:04.510Z,99020.48
2018-12-13T08:27:06.920Z,99019.42
2018-12-13T08:32:09.200Z,99029.22
2018-12-13T08:37:11.496Z,99023.20
2018-12-13T08:42:13.763Z,99025.81
2018-12-13T08:47:16.159Z,99015.65
2018-12-13T08:52:18.468Z,99013.75
2018-12-13T08:57:21.042Z,99019.88
2018-12-13T09:02:23.304Z,99021.05
2018-12-13T09:07:25.587Z,99016.09
2018-12-13T09:12:27.871Z,99015.86
2018-12-13T09:17:30.167Z,99011.70
2018-12-13T09:22:32.447Z,99010.77
2018-12-13T09:27:34.778Z,99001.41
2018-12-13T09:32:37.263Z,98997.98
2018-12-13T09:37:39.555Z,98987.45
2018-12-13T09:42:41.831Z,98988.25
2018-12-13T09:47:44.105Z,98987.66
2018-12-13T09:52:46.490Z,98976.48
2018-12-13T09:57:48.852Z,98973.69
2018-12-13T10:02:51.327Z,98975.78
2018-12-13T10:07:54.262Z,98973.39
2018-12-13T10:12:57.011Z,98974.55
2018-12-13T10:17:59.364Z,98971.91
2018-12-13T10:23:01.660Z,98963.77
2018-12-13T10:28:05.570Z,98964.24
2018-12-13T10:33:07.859Z,98955.37
2018-12-13T10:38:11.822Z,98965.36
2018-12-13T10:43:14.266Z,98959.80
2018-12-13T10:48:16.546Z,98956.81
2018-12-13T10:53:19.247Z,98947.58
2018-12-13T10:58:21.592Z,98944.88
2018-12-13T11:03:29.614Z,98939.20
2018-12-13T11:08:38.787Z,98939.53
2018-12-13T11:13:41.263Z,98928.61
2018-12-13T11:18:43.656Z,98924.84
2018-12-13T11:23:45.940Z,98924.73
2018-12-13T11:30:15.761Z,98919.80
2018-12-13T11:35:18.067Z,98905.73
2018-12-13T11:40:20.340Z,98898.94
2018-12-13T11:45:22.759Z,98895.33
2018-12-13T11:50:25.079Z,98896.16
2018-12-13T11:55:32.520Z,98883.75
2018-12-13T12:00:34.843Z,98882.67
2018-12-13T12:05:37.138Z,98883.84
2018-12-13T12:10:40.118Z,98880.63
2018-12-13T12:15:42.587Z,98874.39
2018-12-13T12:20:45.119Z,98868.30
2018-12-13T12:25:48.350Z,98865.84
2018-12-13T12:30:51.028Z,98873.65
2018-12-13T12:35:53.299Z,98858.72
2018-12-13T12:40:55.578Z,98856.65
2018-12-13T12:45:57.853Z,98866.59
2018-12-13T12:51:00.187Z,98865.36
2018-12-13T12:56:02.608Z,98869.28
2018-12-13T13:01:05.053Z,98865.39
2018-12-13T13:06:07.322Z,98859.24
2018-12-13T13:11:09.660Z,98856.02
2018-12-13T13:16:11.987Z,98849.34
2018-12-13T13:21:14.300Z,98839.99
2018-12-13T13:26:16.599Z,98835.46
2018-12-13T13:31:18.951Z,98831.95
2018-12-13T13:36:21.981Z,98836.50
2018-12-13T13:41:27.331Z,98838.77
2018-12-13T13:46:29.780Z,98840.41
2018-12-13T13:51:32.071Z,98841.27
2018-12-13T13:56:34.413Z,98846.30
2018-12-13T14:01:36.803Z,98851.83
2018-12-13T14:06:39.120Z,98846.31
2018-12-13T14:11:41.526Z,98840.88
2018-12-13T14:16:43.992Z,98833.81
2018-12-13T14:21:46.277Z,98840.94
2018-12-13T14:26:49.165Z,98842.53
2018-12-13T14:31:51.463Z,98843.23
2018-12-13T14:36:53.899Z,98844.36
2018-12-13T14:41:56.456Z,98843.14
2018-12-13T14:47:00.856Z,98847.88
2018-12-13T14:52:03.347Z,98838.55
2018-12-13T14:57:05.640Z,98838.05
2018-12-13T15:02:07.962Z,98840.48
2018-12-13T15:07:10.347Z,98839.34
2018-12-13T15:12:12.652Z,98833.72
2018-12-13T15:17:15.008Z,98842.37
2018-12-13T15:22:17.299Z,98848.09
2018-12-13T15:27:19.607Z,98845.77
2018-12-13T15:32:22.312Z,98846.84
2018-12-13T15:37:24.659Z,98846.38
2018-12-13T15:42:26.939Z,98849.22
2018-12-13T15:47:29.215Z,98840.02
2018-12-13T15:52:31.519Z,98843.23
2018-12-13T15:57:35.721Z,98838.62
2018-12-13T16:02:38.087Z,98839.09
2018-12-13T16:07:41.127Z,98835.66
2018-12-13T16:12:43.883Z,98834.13
2018-12-13T16:17:46.345Z,98832.12
2018-12-13T16:22:48.855Z,98843.27
2018-12-13T16:27:51.298Z,98842.02
2018-12-13T16:32:54.133Z,98846.61
2018-12-13T16:37:56.690Z,98844.62
2018-12-13T16:42:59.533Z,98837.89
2018-12-13T16:48:02.614Z,98836.53
2018-12-13T16:53:04.999Z,98833.48
2018-12-13T16:58:07.283Z,98838.75
2018-12-13T17:03:21.029Z,98837.86
2018-12-13T17:08:24.521Z,98844.85
2018-12-13T17:13:27.047Z,98853.41
2018-12-13T17:18:29.394Z,98850.02
2018-12-13T17:23:31.691Z,98853.11
2018-12-13T17:28:34.060Z,98849.44
2018-12-13T17:33:36.363Z,98851.80
2018-12-13T17:38:38.630Z,98849.93
2018-12-13T17:43:41.049Z,98848.19
2018-12-13T17:48:43.376Z,98850.19
2018-12-13T17:53:45.635Z,98849.09
2018-12-13T17:58:48.066Z,98853.94
2018-12-13T18:03:50.717Z,98852.61
2018-12-13T18:08:53.015Z,98855.41
2018-12-13T18:13:55.627Z,98851.38
2018-12-13T18:18:59.477Z,98858.78
2018-12-13T18:24:01.789Z,98854.88
2018-12-13T18:29:05.248Z,98858.65
2018-12-13T18:34:08.026Z,98854.84
2018-12-13T18:39:10.373Z,98864.14
2018-12-13T18:44:12.653Z,98866.48
2018-12-13T18:49:15.067Z,98855.98
2018-12-13T18:54:17.462Z,98862.21
2018-12-13T18:59:19.850Z,98857.70
2018-12-13T19:04:22.152Z,98863.61
2018-12-13T19:09:24.498Z,98856.97
2018-12-13T19:14:26.778Z,98867.13
2018-12-13T19:19:29.974Z,98867.00
2018-12-13T19:24:32.339Z,98862.50
2018-12-13T19:29:34.606Z,98861.89
2018-12-13T19:34:36.891Z,98864.59
2018-12-13T19:39:39.853Z,98866.36
2018-12-13T19:44:42.144Z,98864.73
2018-12-13T19:49:45.167Z,98863.06
2018-12-13T19:54:48.802Z,98867.09
2018-12-13T19:59:52.542Z,98866.63
2018-12-13T20:04:55.797Z,98867.92
2018-12-13T20:09:58.255Z,98877.03
2018-12-13T20:15:02.166Z,98876.43
2018-12-13T20:20:05.367Z,98889.43
2018-12-13T20:25:08.846Z,98884.56
2018-12-13T20:30:12.250Z,98880.29
2018-12-13T20:35:14.958Z,98891.52
2018-12-13T20:40:17.335Z,98895.77
2018-12-13T20:45:19.919Z,98895.66
2018-12-13T20:50:22.175Z,98887.02
2018-12-13T20:55:24.447Z,98878.25
2018-12-13T21:00:26.727Z,98884.05
2018-12-13T21:05:29.035Z,98887.25
2018-12-13T21:10:31.478Z,98886.75
2018-12-13T21:15:33.966Z,98890.05
2018-12-13T21:20:36.236Z,98879.64
2018-12-13T21:25:38.500Z,98886.52
2018-12-13T21:30:41.604Z,98883.77
2018-12-13T21:35:43.866Z,98886.74
2018-12-13T21:40:46.176Z,98884.23
2018-12-13T21:45:48.433Z,98877.59
2018-12-13T21:50:50.875Z,98875.23
2018-12-13T21:55:53.171Z,98873.94
2018-12-13T22:00:55.443Z,98865.56
2018-12-13T22:05:57.719Z,98859.89
2018-12-13T22:11:01.270Z,98867.42
2018-12-13T22:16:03.743Z,98863.75
2018-12-13T22:21:06.077Z,98865.10
2018-12-13T22:26:09.529Z,98876.34
2018-12-13T22:31:12.011Z,98877.50
2018-12-13T22:36:14.379Z,98879.27
2018-12-13T22:41:16.678Z,98874.44
2018-12-13T22:46:18.954Z,98878.42
2018-12-13T22:51:21.263Z,98874.77
2018-12-13T23:01:57.501Z,98879.59
2018-12-13T23:06:59.907Z,98877.69
2018-12-13T23:12:02.374Z,98881.92
2018-12-13T23:17:05.923Z,98873.78
2018-12-13T23:22:08.247Z,98875.42
2018-12-13T23:27:11.050Z,98869.32
2018-12-13T23:32:13.334Z,98871.88
2018-12-13T23:37:16.698Z,98870.71
2018-12-13T23:42:18.975Z,98874.01
2018-12-13T23:47:21.315Z,98867.01
2018-12-13T23:52:23.657Z,98859.89
2018-12-13T23:57:25.934Z,98861.70
